createdAt,value
2019-04-16T00:01:54.305Z,12.63
2019-04-16T00:04:27.210Z,15.85
2019-04-16T00:06:57.417Z,13.18
2019-04-16T00:09:27.622Z,17.05
2019-04-16T00:12:00.369Z,16.82
2019-04-16T00:14:30.548Z,14.68
2019-04-16T00:16:59.028Z,10.70
2019-04-16T00:19:27.614Z,15.20
2019-04-16T00:21:57.748Z,18.42
2019-04-16T00:24:27.934Z,9.38
2019-04-16T00:26:59.316Z,15.50
2019-04-16T00:29:26.698Z,16.95
2019-04-16T00:31:56.700Z,13.13
2019-04-16T00:34:25.244Z,11.38
2019-04-16T00:36:53.704Z,12.40
2019-04-16T00:39:24.811Z,13.00
2019-04-16T00:41:52.473Z,9.88
2019-04-16T00:44:21.019Z,13.45
2019-04-16T00:46:49.426Z,16.07
2019-04-16T00:49:18.001Z,14.90
2019-04-16T00:51:46.404Z,14.55
2019-04-16T00:54:14.994Z,16.25
2019-04-16T00:56:43.613Z,12.65
2019-04-16T00:59:13.588Z,12.45
2019-04-16T01:01:42.151Z,14.40
2019-04-16T01:04:10.705Z,11.48
2019-04-16T01:06:40.650Z,15.53
2019-04-16T01:09:09.444Z,13.22
2019-04-16T01:11:37.869Z,13.32
2019-04-16T01:14:06.480Z,10.35
2019-04-16T01:16:34.862Z,11.50
2019-04-16T01:19:09.554Z,9.68
2019-04-16T01:21:36.596Z,9.95
2019-04-16T01:24:05.131Z,7.15
2019-04-16T01:26:33.524Z,9.03
2019-04-16T01:29:09.401Z,11.18
2019-04-16T01:31:45.151Z,6.62
2019-04-16T01:34:31.572Z,8.10
2019-04-16T01:37:20.252Z,10.03
2019-04-16T01:39:53.024Z,11.65
2019-04-16T01:42:23.570Z,8.78
2019-04-16T01:44:51.780Z,8.68
2019-04-16T01:47:20.266Z,11.20
2019-04-16T01:49:48.807Z,6.28
2019-04-16T01:52:19.057Z,9.65
2019-04-16T01:54:47.373Z,9.35
2019-04-16T01:57:15.912Z,7.47
2019-04-16T01:59:44.392Z,9.50
2019-04-16T02:02:16.029Z,8.28
2019-04-16T02:04:44.568Z,7.45
2019-04-16T02:07:13.133Z,12.53
2019-04-16T02:09:41.568Z,10.10
2019-04-16T02:12:12.758Z,8.78
2019-04-16T02:14:40.311Z,8.48
2019-04-16T02:17:08.851Z,12.15
2019-04-16T02:19:37.408Z,10.30
2019-04-16T02:22:06.015Z,9.58
2019-04-16T02:24:34.570Z,7.92
2019-04-16T02:27:03.124Z,11.08
2019-04-16T02:29:31.536Z,11.10
2019-04-16T02:32:00.100Z,8.18
2019-04-16T02:34:28.480Z,7.42
2019-04-16T02:37:00.517Z,6.08
2019-04-16T02:39:46.501Z,8.30
2019-04-16T02:41:58.545Z,6.35
2019-04-16T02:44:27.263Z,7.30
2019-04-16T02:46:55.805Z,8.50
2019-04-16T02:49:25.175Z,7.62
2019-04-16T02:52:01.268Z,8.78
2019-04-16T02:54:33.995Z,10.10
2019-04-16T02:57:06.104Z,7.87
2019-04-16T02:59:45.762Z,9.28
2019-04-16T03:02:16.930Z,12.63
2019-04-16T03:04:59.029Z,5.17
2019-04-16T03:07:28.231Z,4.62
2019-04-16T03:10:01.372Z,15.03
2019-04-16T03:12:26.842Z,14.47
2019-04-16T03:14:55.378Z,8.63
2019-04-16T03:17:28.409Z,7.55
2019-04-16T03:19:58.562Z,9.35
2019-04-16T03:22:27.008Z,11.48
2019-04-16T03:24:55.557Z,10.25
2019-04-16T03:27:23.985Z,10.10
2019-04-16T03:29:52.521Z,11.22
2019-04-16T03:32:21.009Z,10.03
2019-04-16T03:34:50.559Z,15.88
2019-04-16T03:37:19.571Z,10.15
2019-04-16T03:39:48.087Z,7.40
2019-04-16T03:42:16.634Z,8.50
2019-04-16T03:44:45.193Z,9.03
2019-04-16T03:47:18.812Z,11.35
2019-04-16T03:49:45.661Z,8.93
2019-04-16T03:52:14.066Z,11.90
2019-04-16T03:54:42.623Z,11.43
2019-04-16T03:57:11.180Z,7.78
2019-04-16T03:59:40.695Z,9.55
2019-04-16T04:04:37.082Z,49.10
2019-04-16T04:07:05.618Z,17.12
2019-04-16T04:09:34.236Z,17.27
2019-04-16T04:12:02.710Z,21.82
2019-04-16T04:14:31.203Z,23.20
2019-04-16T04:17:05.434Z,19.12
2019-04-16T04:19:30.493Z,15.78
2019-04-16T04:21:59.002Z,21.05
2019-04-16T04:24:28.541Z,12.60
2019-04-16T04:26:57.693Z,18.60
2019-04-16T04:29:27.889Z,17.15
2019-04-16T04:31:56.504Z,10.85
2019-04-16T04:34:24.984Z,14.50
2019-04-16T04:36:58.851Z,13.80
2019-04-16T04:39:24.201Z,15.20
2019-04-16T04:41:56.276Z,11.78
2019-04-16T04:44:23.002Z,14.47
2019-04-16T04:46:51.549Z,19.02
2019-04-16T04:49:20.021Z,20.97
2019-04-16T04:51:48.587Z,25.30
2019-04-16T04:54:21.728Z,22.15
2019-04-16T04:56:47.391Z,21.12
2019-04-16T04:59:15.847Z,14.47
2019-04-16T05:01:44.400Z,14.25
2019-04-16T05:04:18.934Z,14.38
2019-04-16T05:06:46.288Z,20.88
2019-04-16T05:09:14.788Z,23.42
2019-04-16T05:11:43.365Z,16.93
2019-04-16T05:14:11.846Z,14.25
2019-04-16T05:16:40.847Z,14.47
2019-04-16T05:19:13.834Z,19.95
2019-04-16T05:21:39.640Z,15.32
2019-04-16T05:24:08.084Z,11.30
2019-04-16T05:26:37.365Z,10.60
2019-04-16T05:29:16.104Z,9.65
2019-04-16T05:31:45.940Z,9.13
2019-04-16T05:34:17.212Z,11.33
2019-04-16T05:36:50.188Z,9.98
2019-04-16T05:39:20.513Z,15.13
2019-04-16T05:41:50.529Z,14.65
2019-04-16T05:44:19.486Z,11.63
2019-04-16T05:46:49.753Z,8.48
2019-04-16T05:49:18.570Z,13.10
2019-04-16T05:51:47.076Z,11.20
2019-04-16T05:54:21.706Z,8.83
2019-04-16T05:56:55.475Z,9.78
2019-04-16T05:59:23.552Z,11.95
2019-04-16T06:02:02.315Z,13.18
2019-04-16T06:04:30.879Z,13.03
2019-04-16T06:07:08.434Z,10.43
2019-04-16T06:09:46.036Z,10.25
2019-04-16T06:12:27.393Z,11.28
2019-04-16T06:15:00.607Z,11.05
2019-04-16T06:17:47.356Z,11.60
2019-04-16T06:20:23.547Z,10.70
2019-04-16T06:23:00.584Z,15.95
2019-04-16T06:25:34.022Z,9.23
2019-04-16T06:28:19.188Z,8.48
2019-04-16T06:31:09.918Z,8.35
2019-04-16T06:33:40.370Z,11.68
2019-04-16T06:36:13.196Z,12.82
2019-04-16T06:38:48.890Z,15.23
2019-04-16T06:41:41.852Z,7.87
2019-04-16T06:44:07.271Z,9.18
2019-04-16T06:46:46.653Z,8.25
2019-04-16T06:49:17.647Z,16.87
2019-04-16T06:52:19.178Z,17.67
2019-04-16T06:54:55.324Z,13.90
2019-04-16T06:57:49.474Z,10.68
2019-04-16T07:00:36.241Z,10.82
2019-04-16T07:03:12.386Z,12.53
2019-04-16T07:05:48.262Z,10.18
2019-04-16T07:08:36.955Z,9.98
2019-04-16T07:10:56.032Z,14.20
2019-04-16T07:13:24.589Z,11.75
2019-04-16T07:15:53.340Z,9.90
2019-04-16T07:18:23.315Z,11.40
2019-04-16T07:20:51.798Z,9.33
2019-04-16T07:23:24.313Z,20.97
2019-04-16T07:25:50.556Z,17.02
2019-04-16T07:28:32.292Z,20.05
2019-04-16T07:31:32.692Z,13.90
2019-04-16T07:33:49.093Z,16.00
2019-04-16T07:36:24.155Z,10.35
2019-04-16T07:39:09.141Z,36.10
2019-04-16T07:42:08.640Z,16.55
2019-04-16T07:44:44.027Z,17.42
2019-04-16T07:47:14.454Z,11.68
2019-04-16T07:49:44.639Z,19.75
2019-04-16T07:52:31.172Z,8.75
2019-04-16T07:55:03.989Z,8.35
2019-04-16T07:57:32.548Z,13.78
2019-04-16T08:00:01.030Z,16.48
2019-04-16T08:02:29.520Z,15.03
2019-04-16T08:04:58.020Z,12.07
2019-04-16T08:07:28.189Z,15.72
2019-04-16T08:10:01.711Z,16.65
2019-04-16T08:12:30.285Z,15.13
2019-04-16T08:14:56.926Z,7.40
2019-04-16T08:17:25.451Z,9.75
2019-04-16T08:19:55.819Z,7.87
2019-04-16T08:22:24.171Z,10.20
2019-04-16T08:25:02.985Z,13.93
2019-04-16T08:27:29.926Z,13.45
2019-04-16T08:30:02.126Z,7.30
2019-04-16T08:32:28.667Z,10.20
2019-04-16T08:34:57.135Z,9.68
2019-04-16T08:37:25.769Z,4.42
2019-04-16T08:39:54.270Z,6.62
2019-04-16T08:42:25.678Z,9.15
2019-04-16T08:44:52.872Z,8.60
2019-04-16T08:47:21.549Z,8.70
2019-04-16T08:49:53.625Z,8.27
2019-04-16T08:52:20.422Z,8.98
2019-04-16T08:54:50.382Z,14.83
2019-04-16T08:57:19.176Z,6.42
2019-04-16T08:59:47.736Z,4.83
2019-04-16T09:02:16.337Z,8.53
2019-04-16T09:04:44.990Z,11.12
2019-04-16T09:07:19.476Z,13.25
2019-04-16T09:09:47.035Z,12.60
2019-04-16T09:12:15.708Z,6.03
2019-04-16T09:14:45.719Z,8.55
2019-04-16T09:17:15.823Z,10.68
2019-04-16T09:19:48.710Z,5.72
2019-04-16T09:22:17.306Z,12.82
2019-04-16T09:24:47.519Z,4.77
2019-04-16T09:27:28.675Z,4.53
2019-04-16T09:30:16.911Z,4.67
2019-04-16T09:32:50.082Z,5.28
2019-04-16T09:35:23.263Z,4.97
2019-04-16T09:37:53.386Z,4.67
2019-04-16T09:40:37.969Z,6.20
2019-04-16T09:43:17.545Z,8.15
2019-04-16T09:45:41.286Z,5.50
2019-04-16T09:48:09.770Z,5.12
2019-04-16T09:50:42.943Z,8.13
2019-04-16T09:53:08.463Z,4.97
2019-04-16T09:55:37.022Z,6.20
2019-04-16T09:58:07.215Z,8.85
2019-04-16T10:00:37.352Z,6.25
2019-04-16T10:03:19.445Z,5.72
2019-04-16T10:05:47.938Z,6.20
2019-04-16T10:08:16.436Z,12.28
2019-04-16T10:10:45.068Z,7.12
2019-04-16T10:13:13.592Z,5.93
2019-04-16T10:15:42.218Z,13.22
2019-04-16T10:18:10.765Z,7.22
2019-04-16T10:20:40.474Z,8.23
2019-04-16T10:23:10.661Z,6.97
2019-04-16T10:25:39.169Z,17.00
2019-04-16T10:28:09.279Z,7.78
2019-04-16T10:30:39.407Z,12.03
2019-04-16T10:33:08.017Z,7.55
2019-04-16T10:35:36.609Z,8.63
2019-04-16T10:38:06.765Z,5.57
2019-04-16T10:40:40.335Z,6.05
2019-04-16T10:43:26.991Z,5.55
2019-04-16T10:45:57.097Z,5.20
2019-04-16T10:48:29.965Z,12.63
2019-04-16T10:51:00.174Z,9.00
2019-04-16T10:53:36.341Z,10.23
2019-04-16T10:56:12.409Z,13.15
2019-04-16T10:58:58.929Z,13.68
2019-04-16T11:01:38.400Z,6.70
2019-04-16T11:04:25.289Z,10.15
2019-04-16T11:07:10.324Z,8.68
2019-04-16T11:09:39.190Z,9.50
2019-04-16T11:12:07.729Z,6.42
2019-04-16T11:14:36.189Z,8.40
2019-04-16T11:17:04.839Z,8.73
2019-04-16T11:19:33.790Z,9.03
2019-04-16T11:22:04.015Z,6.40
2019-04-16T11:24:32.582Z,14.28
2019-04-16T11:27:01.037Z,12.60
2019-04-16T11:29:29.592Z,19.30
2019-04-16T11:31:58.166Z,11.38
2019-04-16T11:34:26.640Z,17.52
2019-04-16T11:36:58.279Z,17.95
2019-04-16T11:39:25.479Z,11.40
2019-04-16T11:41:54.029Z,19.00
2019-04-16T11:44:22.563Z,21.35
2019-04-16T11:46:51.239Z,18.02
2019-04-16T11:49:21.313Z,19.42
2019-04-16T11:51:50.055Z,12.10
2019-04-16T11:54:18.731Z,22.85
2019-04-16T11:56:47.268Z,12.73
2019-04-16T11:59:15.834Z,16.00
2019-04-16T12:01:46.051Z,15.38
2019-04-16T12:04:21.870Z,10.65
2019-04-16T12:07:08.459Z,15.78
2019-04-16T12:09:44.591Z,15.43
2019-04-16T12:12:17.398Z,38.50
2019-04-16T12:14:53.427Z,13.30
2019-04-16T12:17:23.520Z,9.58
2019-04-16T12:19:53.736Z,13.60
2019-04-16T12:22:29.865Z,8.58
2019-04-16T12:25:16.032Z,14.93
2019-04-16T12:27:49.210Z,19.50
2019-04-16T12:30:31.559Z,15.65
2019-04-16T12:33:07.862Z,13.05
2019-04-16T12:35:39.604Z,13.15
2019-04-16T12:38:13.141Z,10.45
2019-04-16T12:40:42.269Z,11.15
2019-04-16T12:43:16.010Z,12.85
2019-04-16T12:45:56.484Z,11.55
2019-04-16T12:48:35.483Z,15.78
2019-04-16T12:53:53.083Z,17.07
2019-04-16T12:56:25.300Z,10.90
2019-04-16T12:59:07.619Z,11.65
2019-04-16T13:01:52.899Z,10.32
2019-04-16T13:04:29.104Z,14.30
2019-04-16T13:07:08.204Z,21.42
2019-04-16T13:09:47.514Z,13.45
2019-04-16T13:12:26.721Z,14.25
2019-04-16T13:15:12.108Z,10.63
2019-04-16T13:17:42.235Z,6.95
2019-04-16T13:20:29.529Z,12.35
2019-04-16T13:23:00.395Z,14.10
2019-04-16T13:25:30.527Z,6.83
2019-04-16T13:27:59.117Z,17.67
2019-04-16T13:30:27.676Z,9.48
2019-04-16T13:32:56.192Z,8.93
2019-04-16T13:35:24.679Z,23.27
2019-04-16T13:37:53.211Z,10.72
2019-04-16T13:40:21.944Z,13.45
2019-04-16T13:42:50.524Z,10.53
2019-04-16T13:45:31.878Z,10.38
2019-04-16T13:48:14.784Z,10.63
2019-04-16T13:50:41.017Z,14.53
2019-04-16T13:53:10.612Z,10.98
2019-04-16T13:55:41.708Z,19.00
2019-04-16T13:58:15.502Z,10.10
2019-04-16T14:00:45.681Z,17.92
2019-04-16T14:03:23.852Z,8.75
2019-04-16T14:05:52.118Z,6.12
2019-04-16T14:08:20.797Z,16.23
2019-04-16T14:10:49.397Z,9.08
2019-04-16T14:13:17.894Z,11.03
2019-04-16T14:15:46.463Z,9.53
2019-04-16T14:18:14.985Z,13.93
2019-04-16T14:20:43.650Z,17.20
2019-04-16T14:23:12.162Z,10.40
2019-04-16T14:25:40.656Z,11.13
2019-04-16T14:28:09.233Z,12.47
2019-04-16T14:30:42.715Z,11.63
2019-04-16T14:33:12.238Z,8.00
2019-04-16T14:35:40.817Z,11.78
2019-04-16T14:38:09.602Z,6.63
2019-04-16T14:40:39.678Z,9.58
2019-04-16T14:43:08.868Z,6.35
2019-04-16T14:45:57.428Z,11.10
2019-04-16T14:48:14.791Z,14.13
2019-04-16T14:50:43.300Z,15.40
2019-04-16T14:53:13.606Z,14.97
2019-04-16T14:55:59.887Z,14.65
2019-04-16T14:58:36.895Z,16.23
2019-04-16T15:01:13.442Z,9.55
2019-04-16T15:03:49.993Z,12.40
2019-04-16T15:06:26.482Z,10.68
2019-04-16T15:08:57.005Z,13.28
2019-04-16T15:11:39.187Z,17.05
2019-04-16T15:14:12.641Z,13.78
2019-04-16T15:16:50.721Z,15.83
2019-04-16T15:19:32.680Z,8.98
2019-04-16T15:22:19.386Z,13.55
2019-04-16T15:25:05.997Z,16.52
2019-04-16T15:27:36.223Z,16.07
2019-04-16T15:30:11.831Z,9.70
2019-04-16T15:32:41.955Z,15.68
2019-04-16T15:35:28.679Z,28.92
2019-04-16T15:38:04.867Z,20.75
2019-04-16T15:40:39.342Z,20.55
2019-04-16T15:43:12.944Z,17.80
2019-04-16T15:45:52.172Z,29.72
2019-04-16T15:48:34.412Z,12.82
2019-04-16T15:51:13.922Z,15.80
2019-04-16T15:53:47.728Z,19.73
2019-04-16T15:56:17.015Z,14.75
2019-04-16T15:58:47.258Z,10.88
2019-04-16T16:01:34.118Z,22.13
2019-04-16T16:04:13.630Z,17.10
2019-04-16T16:09:13.292Z,33.40
2019-04-16T16:11:59.897Z,18.10
2019-04-16T16:14:33.044Z,24.70
2019-04-16T16:16:58.696Z,20.90
2019-04-16T16:19:27.209Z,20.32
2019-04-16T16:21:55.793Z,19.30
2019-04-16T16:24:24.298Z,12.70
2019-04-16T16:26:52.865Z,10.80
2019-04-16T16:29:21.455Z,16.05
2019-04-16T16:31:49.970Z,15.93
2019-04-16T16:34:18.490Z,20.57
2019-04-16T16:36:47.020Z,16.48
2019-04-16T16:39:15.662Z,15.78
2019-04-16T16:41:46.906Z,7.23
2019-04-16T16:44:15.491Z,26.25
2019-04-16T16:46:57.226Z,25.20
2019-04-16T16:49:23.837Z,14.33
2019-04-16T16:52:10.599Z,12.75
2019-04-16T16:54:42.699Z,22.17
2019-04-16T16:57:15.841Z,24.80
2019-04-16T16:59:50.542Z,19.70
2019-04-16T17:02:32.500Z,20.88
2019-04-16T17:05:02.949Z,24.85
2019-04-16T17:07:32.036Z,19.48
2019-04-16T17:10:02.169Z,12.13
2019-04-16T17:12:32.335Z,16.90
2019-04-16T17:15:00.975Z,22.77
2019-04-16T17:17:32.113Z,25.55
2019-04-16T17:20:02.137Z,18.27
2019-04-16T17:22:30.641Z,12.33
2019-04-16T17:24:59.221Z,20.92
2019-04-16T17:27:28.792Z,20.82
2019-04-16T17:32:26.759Z,17.12
2019-04-16T17:34:55.513Z,15.75
2019-04-16T17:37:27.820Z,21.20
2019-04-16T17:39:57.047Z,21.80
2019-04-16T17:42:26.980Z,21.17
2019-04-16T17:45:13.234Z,14.10
2019-04-16T17:47:55.729Z,32.75
2019-04-16T17:50:39.213Z,14.80
2019-04-16T17:53:08.156Z,35.35
2019-04-16T17:55:56.711Z,17.73
2019-04-16T17:58:27.386Z,24.82
2019-04-16T18:01:16.059Z,26.87
2019-04-16T18:03:50.881Z,23.95
2019-04-16T18:06:26.875Z,23.45
2019-04-16T18:09:00.326Z,27.37
2019-04-16T18:11:47.047Z,19.12
2019-04-16T18:14:34.496Z,29.60
2019-04-16T18:17:04.746Z,32.98
2019-04-16T18:19:37.906Z,44.13
2019-04-16T18:22:23.200Z,35.68
2019-04-16T18:24:53.602Z,28.40
2019-04-16T18:27:29.190Z,32.78
2019-04-16T18:29:58.674Z,26.17
2019-04-16T18:32:45.346Z,29.20
2019-04-16T18:35:32.981Z,34.55
2019-04-16T18:38:03.431Z,21.05
2019-04-16T18:40:33.822Z,31.85
2019-04-16T18:43:16.110Z,25.57
2019-04-16T18:46:02.799Z,25.95
2019-04-16T18:48:32.957Z,34.40
2019-04-16T18:51:02.037Z,28.75
2019-04-16T18:53:30.578Z,36.03
2019-04-16T18:55:59.229Z,24.47
2019-04-16T18:58:27.737Z,26.02
2019-04-16T19:01:01.125Z,24.57
2019-04-16T19:03:29.639Z,18.27
2019-04-16T19:05:58.138Z,24.23
2019-04-16T19:08:40.927Z,25.37
2019-04-16T19:10:56.925Z,34.13
2019-04-16T19:13:25.411Z,20.32
2019-04-16T19:15:54.231Z,28.30
2019-04-16T19:18:22.804Z,30.60
2019-04-16T19:20:51.814Z,21.87
2019-04-16T19:23:22.204Z,20.40
2019-04-16T19:25:54.935Z,24.77
2019-04-16T19:28:22.705Z,27.32
2019-04-16T19:30:51.378Z,21.73
2019-04-16T19:33:20.873Z,17.90
2019-04-16T19:35:51.898Z,20.80
2019-04-16T19:38:19.634Z,17.92
2019-04-16T19:40:50.964Z,21.33
2019-04-16T19:43:18.379Z,43.95
2019-04-16T19:45:46.951Z,23.62
2019-04-16T19:48:17.962Z,21.33
2019-04-16T19:50:45.729Z,28.10
2019-04-16T19:53:15.124Z,19.37
2019-04-16T19:55:45.956Z,19.92
2019-04-16T19:58:14.030Z,19.60
2019-04-16T20:00:42.705Z,23.80
2019-04-16T20:03:11.188Z,23.57
2019-04-16T20:05:39.867Z,17.10
2019-04-16T20:08:08.380Z,17.07
2019-04-16T20:10:37.041Z,12.07
2019-04-16T20:13:05.630Z,23.18
2019-04-16T20:15:34.271Z,12.85
2019-04-16T20:18:06.147Z,22.32
2019-04-16T20:20:33.109Z,16.17
2019-04-16T20:23:01.632Z,14.98
2019-04-16T20:25:30.375Z,19.98
2019-04-16T20:27:58.906Z,16.20
2019-04-16T20:30:29.048Z,15.45
2019-04-16T20:32:57.579Z,17.77
2019-04-16T20:35:26.084Z,16.32
2019-04-16T20:37:55.185Z,15.48
2019-04-16T20:40:25.813Z,19.25
2019-04-16T20:42:54.267Z,19.50
2019-04-16T20:45:22.908Z,21.40
2019-04-16T20:47:51.485Z,16.97
2019-04-16T20:50:20.873Z,21.68
2019-04-16T20:52:50.138Z,22.25
2019-04-16T20:55:18.751Z,23.70
2019-04-16T20:57:47.314Z,20.25
2019-04-16T21:00:17.442Z,20.65
2019-04-16T21:02:48.207Z,16.50
2019-04-16T21:05:22.218Z,19.07
2019-04-16T21:07:47.261Z,17.35
2019-04-16T21:10:16.383Z,23.32
2019-04-16T21:12:45.351Z,20.72
2019-04-16T21:17:42.469Z,18.50
2019-04-16T21:20:10.906Z,21.30
2019-04-16T21:22:39.442Z,17.85
2019-04-16T21:25:12.618Z,16.02
2019-04-16T21:27:39.781Z,21.85
2019-04-16T21:30:12.777Z,18.25
2019-04-16T21:32:55.870Z,15.10
2019-04-16T21:35:31.696Z,19.02
2019-04-16T21:38:03.364Z,15.93
2019-04-16T21:40:32.179Z,18.70
2019-04-16T21:43:06.314Z,17.13
2019-04-16T21:45:30.945Z,18.52
2019-04-16T21:47:59.485Z,17.73
2019-04-16T21:50:27.886Z,18.30
2019-04-16T21:52:56.709Z,14.33
2019-04-16T21:55:25.303Z,11.93
2019-04-16T21:57:54.026Z,11.78
2019-04-16T22:00:39.253Z,14.25
2019-04-16T22:03:10.850Z,15.30
2019-04-16T22:05:39.605Z,12.63
2019-04-16T22:08:08.177Z,11.45
2019-04-16T22:10:36.546Z,14.43
2019-04-16T22:13:05.173Z,14.20
2019-04-16T22:15:33.718Z,12.88
2019-04-16T22:18:07.533Z,13.60
2019-04-16T22:20:35.683Z,16.00
2019-04-16T22:23:02.733Z,13.98
2019-04-16T22:25:31.309Z,13.33
2019-04-16T22:27:59.999Z,13.78
2019-04-16T22:30:28.613Z,12.83
2019-04-16T22:32:57.165Z,12.45
2019-04-16T22:35:25.632Z,12.65
2019-04-16T22:37:54.187Z,13.43
2019-04-16T22:40:27.169Z,13.45
2019-04-16T22:43:15.504Z,9.50
2019-04-16T22:45:51.993Z,11.60
2019-04-16T22:48:18.481Z,8.40
2019-04-16T22:50:46.887Z,6.58
2019-04-16T22:53:17.185Z,11.18
2019-04-16T22:55:45.645Z,7.50
2019-04-16T22:58:15.808Z,10.80
2019-04-16T23:00:47.403Z,12.37
2019-04-16T23:03:16.617Z,10.68
2019-04-16T23:05:47.180Z,13.55
2019-04-16T23:08:15.743Z,9.00
2019-04-16T23:10:44.139Z,12.33
2019-04-16T23:13:12.684Z,8.48
2019-04-16T23:15:42.285Z,9.15
2019-04-16T23:18:10.812Z,11.75
2019-04-16T23:20:40.931Z,9.70
2019-04-16T23:23:09.478Z,7.78
2019-04-16T23:25:37.936Z,16.67
2019-04-16T23:28:09.508Z,9.55
2019-04-16T23:30:36.618Z,7.97
2019-04-16T23:33:05.468Z,13.48
2019-04-16T23:35:34.137Z,6.00
2019-04-16T23:38:02.741Z,10.75
2019-04-16T23:40:31.313Z,9.48
2019-04-16T23:43:04.166Z,10.60
2019-04-16T23:45:34.347Z,6.33
2019-04-16T23:48:07.415Z,9.30
2019-04-16T23:50:44.911Z,9.33
2019-04-16T23:53:12.136Z,13.58
2019-04-16T23:56:00.729Z,11.78
2019-04-16T23:58:30.790Z,5.83
